Terminal Aerodrome Forecast
Issued by NWS

Home | Current Version | Previous Version | Text Only | Print | Product List | Glossary On
Versions: 1 2 3 4 5 6 7 8 9 10 11 12 13 14 15 16
000
FTUS43 KGRB 241120
TAFCWA
TAF
KCWA 241120Z 2412/2512 21011G16KT P6SM SCT250 WS017/25050KT
     FM241400 22012G20KT P6SM SCT250 WS019/24055KT
     FM241900 26011G18KT P6SM BKN120
      TEMPO 2419/2423 -SHRA BKN040
     FM250000 30011G20KT P6SM BKN060
     FM250900 29010G20KT P6SM SCT017=

USA.gov is the U.S. government's official web portal to all federal, state and local government web resources and services.